Aérodrome :
LOGIN :

S'inscrire | Disclaimer

   EN    FR    IT 

 










Légende :    VFR   VFR Marginal   IFR   IFR Intensif   IFR Très Intensif
Visi : 
Plafond : 
>= 8 km
>= 3000ft
5 à 8 km
1000 à 3000 ft
1500m à 5 km
500 à 1000 ft
800 à 1500m
200 à 500 ft
< 800m
< 200 ft
Symboles :   Orages  Brouillard  Fortes neiges  Fortes précipitations  Vent > 20 kt
SIGMETs :   Divers  Orages  Givrage  Turbulence  Onde Orograph.  Cendres Volcan.






- Altitude de l'aérodrome : 10 ft
- Code IATA : AAL


EKYT - Aalborg

DERNIER METAR :
  • 252220Z AUTO 18007KT 9999 FEW020/// FEW065/// BKN082/// 10/09 Q0998

METARs EXPIRÉS :
  • 252150Z AUTO 18007KT 9999 BKN083/// 10/09 Q0998
  • 252120Z AUTO 17007KT 9999 FEW091/// SCT130/// BKN200/// 09/09 Q0998
  • 252050Z AUTO 17007KT 9999 SCT140/// BKN180/// 10/09 Q0998
  • 252020Z AUTO 17009KT 9999 FEW030/// BKN150/// BKN220/// 10/09 Q0998
  • 251950Z AUTO 18008KT 9999 FEW130/// BKN150/// 10/09 Q0998

TAF TAF EKYT
Valide du 25 à 21h jusqu'au 26 à 21h UTC


252007Z 2521/2621 18012KT 9999 BKN025
TEMPO 2521/2522 6000 -SHRA SCT020CB
TEMPO 2522/2609 4000 SHRA BR BKN012 SCT020CB



MET'MAP, la Météo Aéronautique d'un coup d'oeil ! - Copyright ORBIFLY Décembre 2007 - Disclaimer

ORBIFLY MET'MAP TEAM :

Programmation & Développement : Alexandra Zaïnal
Sur une idée originale de : Baudouin d'Aumeries
Assistance à la programmation : Marc-Olivier Méhu
Soutien technique & logistique : Manuel Goepfert

Contact : metmap@orbifly.com




SOURCES & CREDITS :

   NOAA